sensor_id;sensor_type;location;lat;lon;timestamp;temperature;humidity
8226;DHT22;4154;48.810;9.012;2024-01-10T00:01:43;-3.40;90.60
8226;DHT22;4154;48.810;9.012;2024-01-10T00:04:09;-3.40;90.90
8226;DHT22;4154;48.810;9.012;2024-01-10T00:06:35;-3.40;90.90
8226;DHT22;4154;48.810;9.012;2024-01-10T00:09:00;-3.40;91.00
8226;DHT22;4154;48.810;9.012;2024-01-10T00:11:26;-3.40;91.00
8226;DHT22;4154;48.810;9.012;2024-01-10T00:13:52;-3.50;91.00
8226;DHT22;4154;48.810;9.012;2024-01-10T00:16:17;-3.50;91.10
8226;DHT22;4154;48.810;9.012;2024-01-10T00:18:43;-3.50;91.10
8226;DHT22;4154;48.810;9.012;2024-01-10T00:21:10;-3.50;91.30
8226;DHT22;4154;48.810;9.012;2024-01-10T00:23:36;-3.50;91.30
8226;DHT22;4154;48.810;9.012;2024-01-10T00:26:02;-3.50;91.30
8226;DHT22;4154;48.810;9.012;2024-01-10T00:28:27;-3.50;91.30
8226;DHT22;4154;48.810;9.012;2024-01-10T00:30:53;-2.80;97.60
8226;DHT22;4154;48.810;9.012;2024-01-10T00:33:19;-3.40;91.20
8226;DHT22;4154;48.810;9.012;2024-01-10T00:35:44;-3.40;91.30
8226;DHT22;4154;48.810;9.012;2024-01-10T00:38:10;-3.40;91.30
8226;DHT22;4154;48.810;9.012;2024-01-10T00:40:36;-3.40;91.10
8226;DHT22;4154;48.810;9.012;2024-01-10T00:43:02;-3.30;91.30
8226;DHT22;4154;48.810;9.012;2024-01-10T00:47:54;-3.30;91.30
8226;DHT22;4154;48.810;9.012;2024-01-10T00:50:19;-3.30;91.40
8226;DHT22;4154;48.810;9.012;2024-01-10T00:52:46;-3.30;91.40
8226;DHT22;4154;48.810;9.012;2024-01-10T00:55:12;-3.30;91.30
8226;DHT22;4154;48.810;9.012;2024-01-10T00:57:38;-3.20;91.30
8226;DHT22;4154;48.810;9.012;2024-01-10T01:00:08;-3.20;91.20
8226;DHT22;4154;48.810;9.012;2024-01-10T01:02:35;-3.20;91.20
8226;DHT22;4154;48.810;9.012;2024-01-10T01:05:01;-3.20;91.20
8226;DHT22;4154;48.810;9.012;2024-01-10T01:07:28;-3.30;91.30
8226;DHT22;4154;48.810;9.012;2024-01-10T01:09:53;-3.30;91.60
8226;DHT22;4154;48.810;9.012;2024-01-10T01:14:45;-3.40;91.50
8226;DHT22;4154;48.810;9.012;2024-01-10T01:17:11;-3.30;91.50
8226;DHT22;4154;48.810;9.012;2024-01-10T01:19:38;-3.30;91.50
8226;DHT22;4154;48.810;9.012;2024-01-10T01:22:03;-3.30;91.60
8226;DHT22;4154;48.810;9.012;2024-01-10T01:24:29;-3.30;91.60
8226;DHT22;4154;48.810;9.012;2024-01-10T01:26:55;-3.50;97.20
8226;DHT22;4154;48.810;9.012;2024-01-10T01:29:20;-3.30;91.20
8226;DHT22;4154;48.810;9.012;2024-01-10T01:31:46;-3.40;90.80
8226;DHT22;4154;48.810;9.012;2024-01-10T01:34:12;-3.30;90.70
8226;DHT22;4154;48.810;9.012;2024-01-10T01:36:38;-3.30;91.30
8226;DHT22;4154;48.810;9.012;2024-01-10T01:39:04;-3.30;91.30
8226;DHT22;4154;48.810;9.012;2024-01-10T01:41:29;-3.30;91.20
8226;DHT22;4154;48.810;9.012;2024-01-10T01:43:55;-3.30;91.20
8226;DHT22;4154;48.810;9.012;2024-01-10T01:46:21;-3.30;91.20
8226;DHT22;4154;48.810;9.012;2024-01-10T01:48:48;-3.30;91.20
8226;DHT22;4154;48.810;9.012;2024-01-10T01:51:15;-3.30;91.20
8226;DHT22;4154;48.810;9.012;2024-01-10T01:53:44;-3.20;91.20
8226;DHT22;4154;48.810;9.012;2024-01-10T01:56:10;-3.20;91.10
8226;DHT22;4154;48.810;9.012;2024-01-10T01:58:39;-3.20;91.20
8226;DHT22;4154;48.810;9.012;2024-01-10T02:01:05;-3.20;91.30
8226;DHT22;4154;48.810;9.012;2024-01-10T02:03:32;-3.20;91.40
8226;DHT22;4154;48.810;9.012;2024-01-10T02:06:00;-3.10;91.50
8226;DHT22;4154;48.810;9.012;2024-01-10T02:08:31;-3.10;91.50
8226;DHT22;4154;48.810;9.012;2024-01-10T02:13:29;-3.00;91.60
8226;DHT22;4154;48.810;9.012;2024-01-10T02:15:57;-3.10;91.90
8226;DHT22;4154;48.810;9.012;2024-01-10T02:18:23;-3.10;91.90
8226;DHT22;4154;48.810;9.012;2024-01-10T02:20:49;-3.10;92.00
8226;DHT22;4154;48.810;9.012;2024-01-10T02:23:15;-3.00;92.10
8226;DHT22;4154;48.810;9.012;2024-01-10T02:25:41;-3.00;92.10
8226;DHT22;4154;48.810;9.012;2024-01-10T02:28:07;-2.90;98.00
8226;DHT22;4154;48.810;9.012;2024-01-10T02:33:00;-3.10;91.70
8226;DHT22;4154;48.810;9.012;2024-01-10T02:37:54;-3.10;91.60
8226;DHT22;4154;48.810;9.012;2024-01-10T02:40:20;-3.10;91.70
8226;DHT22;4154;48.810;9.012;2024-01-10T02:42:46;-3.00;91.60
8226;DHT22;4154;48.810;9.012;2024-01-10T02:45:12;-3.00;91.40
8226;DHT22;4154;48.810;9.012;2024-01-10T02:47:39;-3.10;91.30
8226;DHT22;4154;48.810;9.012;2024-01-10T02:50:05;-3.00;91.30
8226;DHT22;4154;48.810;9.012;2024-01-10T02:52:31;-3.10;91.30
8226;DHT22;4154;48.810;9.012;2024-01-10T02:54:57;-3.10;91.30
8226;DHT22;4154;48.810;9.012;2024-01-10T02:57:23;-3.10;91.20
8226;DHT22;4154;48.810;9.012;2024-01-10T02:59:49;-3.10;91.30
8226;DHT22;4154;48.810;9.012;2024-01-10T03:02:15;-3.10;91.20
8226;DHT22;4154;48.810;9.012;2024-01-10T03:07:07;-2.60;97.50
8226;DHT22;4154;48.810;9.012;2024-01-10T03:09:33;-3.30;91.30
8226;DHT22;4154;48.810;9.012;2024-01-10T03:11:58;-3.30;91.30
8226;DHT22;4154;48.810;9.012;2024-01-10T03:14:24;-3.20;91.30
8226;DHT22;4154;48.810;9.012;2024-01-10T03:16:50;-3.20;97.30
8226;DHT22;4154;48.810;9.012;2024-01-10T03:19:16;-3.20;91.30
8226;DHT22;4154;48.810;9.012;2024-01-10T03:21:41;-3.20;91.40
8226;DHT22;4154;48.810;9.012;2024-01-10T03:24:07;-3.20;91.50
8226;DHT22;4154;48.810;9.012;2024-01-10T03:26:33;-3.10;91.60
8226;DHT22;4154;48.810;9.012;2024-01-10T03:28:59;-3.10;91.70
8226;DHT22;4154;48.810;9.012;2024-01-10T03:31:26;-3.10;91.70
8226;DHT22;4154;48.810;9.012;2024-01-10T03:33:53;-3.10;91.70
8226;DHT22;4154;48.810;9.012;2024-01-10T03:36:19;-3.10;91.70
8226;DHT22;4154;48.810;9.012;2024-01-10T03:38:45;-3.00;97.70
8226;DHT22;4154;48.810;9.012;2024-01-10T03:41:15;-3.20;91.50
8226;DHT22;4154;48.810;9.012;2024-01-10T03:43:44;-3.20;91.40
8226;DHT22;4154;48.810;9.012;2024-01-10T03:46:11;-3.20;91.40
8226;DHT22;4154;48.810;9.012;2024-01-10T03:48:37;-3.20;91.30
8226;DHT22;4154;48.810;9.012;2024-01-10T03:51:07;-3.20;91.40
8226;DHT22;4154;48.810;9.012;2024-01-10T03:53:34;-3.20;91.40
8226;DHT22;4154;48.810;9.012;2024-01-10T03:56:04;-3.10;91.40
8226;DHT22;4154;48.810;9.012;2024-01-10T03:58:30;-3.20;91.40
8226;DHT22;4154;48.810;9.012;2024-01-10T04:00:56;-3.20;91.50
8226;DHT22;4154;48.810;9.012;2024-01-10T04:03:22;-3.20;91.50
8226;DHT22;4154;48.810;9.012;2024-01-10T04:05:47;-3.20;91.40
8226;DHT22;4154;48.810;9.012;2024-01-10T04:08:13;-3.20;91.50
8226;DHT22;4154;48.810;9.012;2024-01-10T04:10:38;-3.20;91.70
8226;DHT22;4154;48.810;9.012;2024-01-10T04:13:04;-3.20;91.70
8226;DHT22;4154;48.810;9.012;2024-01-10T04:15:30;-3.20;91.70
8226;DHT22;4154;48.810;9.012;2024-01-10T04:17:55;-3.20;91.70
8226;DHT22;4154;48.810;9.012;2024-01-10T04:20:21;-3.20;91.80
8226;DHT22;4154;48.810;9.012;2024-01-10T04:22:47;-3.20;91.80
8226;DHT22;4154;48.810;9.012;2024-01-10T04:25:12;-3.20;91.70
8226;DHT22;4154;48.810;9.012;2024-01-10T04:27:38;-3.10;91.80
8226;DHT22;4154;48.810;9.012;2024-01-10T04:30:04;-3.10;91.80
8226;DHT22;4154;48.810;9.012;2024-01-10T04:32:30;-3.10;91.80
8226;DHT22;4154;48.810;9.012;2024-01-10T04:34:56;-3.10;91.80
8226;DHT22;4154;48.810;9.012;2024-01-10T04:37:22;-3.10;91.80
8226;DHT22;4154;48.810;9.012;2024-01-10T04:39:47;-3.10;91.90
8226;DHT22;4154;48.810;9.012;2024-01-10T04:42:13;-3.10;91.90
8226;DHT22;4154;48.810;9.012;2024-01-10T04:44:39;-3.10;91.90
8226;DHT22;4154;48.810;9.012;2024-01-10T04:47:06;-2.90;97.50
8226;DHT22;4154;48.810;9.012;2024-01-10T04:51:58;-3.00;97.60
8226;DHT22;4154;48.810;9.012;2024-01-10T04:56:50;-3.00;97.40
8226;DHT22;4154;48.810;9.012;2024-01-10T04:59:16;-2.90;91.70
8226;DHT22;4154;48.810;9.012;2024-01-10T05:01:41;-2.90;91.60
8226;DHT22;4154;48.810;9.012;2024-01-10T05:04:07;-2.90;97.50
8226;DHT22;4154;48.810;9.012;2024-01-10T05:06:33;-2.90;91.50
8226;DHT22;4154;48.810;9.012;2024-01-10T05:08:58;-2.90;91.50
8226;DHT22;4154;48.810;9.012;2024-01-10T05:11:25;-2.90;91.40
8226;DHT22;4154;48.810;9.012;2024-01-10T05:13:52;-2.90;91.40
8226;DHT22;4154;48.810;9.012;2024-01-10T05:16:18;-2.90;91.40
8226;DHT22;4154;48.810;9.012;2024-01-10T05:18:44;-2.80;91.40
8226;DHT22;4154;48.810;9.012;2024-01-10T05:21:09;-2.90;91.30
8226;DHT22;4154;48.810;9.012;2024-01-10T05:23:35;-2.90;91.20
8226;DHT22;4154;48.810;9.012;2024-01-10T05:26:02;-2.90;91.10
8226;DHT22;4154;48.810;9.012;2024-01-10T05:28:28;-2.90;91.10
8226;DHT22;4154;48.810;9.012;2024-01-10T05:30:53;-2.90;91.10
8226;DHT22;4154;48.810;9.012;2024-01-10T05:33:19;-2.90;91.00
8226;DHT22;4154;48.810;9.012;2024-01-10T05:35:45;-3.00;91.10
8226;DHT22;4154;48.810;9.012;2024-01-10T05:38:11;-3.00;91.10
8226;DHT22;4154;48.810;9.012;2024-01-10T05:40:37;-3.00;91.20
8226;DHT22;4154;48.810;9.012;2024-01-10T05:43:03;-2.90;91.00
8226;DHT22;4154;48.810;9.012;2024-01-10T05:45:28;-2.90;90.90
8226;DHT22;4154;48.810;9.012;2024-01-10T05:47:54;-2.90;90.90
8226;DHT22;4154;48.810;9.012;2024-01-10T05:50:21;-2.90;90.90
8226;DHT22;4154;48.810;9.012;2024-01-10T05:52:47;-3.00;91.00
8226;DHT22;4154;48.810;9.012;2024-01-10T05:55:13;-3.00;91.10
8226;DHT22;4154;48.810;9.012;2024-01-10T05:57:39;-3.00;91.30
8226;DHT22;4154;48.810;9.012;2024-01-10T06:00:06;-3.00;91.30
8226;DHT22;4154;48.810;9.012;2024-01-10T06:02:41;-3.00;91.40
8226;DHT22;4154;48.810;9.012;2024-01-10T06:05:11;-3.00;91.40
8226;DHT22;4154;48.810;9.012;2024-01-10T06:07:40;-3.00;91.30
8226;DHT22;4154;48.810;9.012;2024-01-10T06:10:07;-3.00;91.20
8226;DHT22;4154;48.810;9.012;2024-01-10T06:12:33;-3.10;91.10
8226;DHT22;4154;48.810;9.012;2024-01-10T06:14:58;-3.10;91.10
8226;DHT22;4154;48.810;9.012;2024-01-10T06:19:50;-3.10;90.70
8226;DHT22;4154;48.810;9.012;2024-01-10T06:22:17;-3.10;90.70
8226;DHT22;4154;48.810;9.012;2024-01-10T06:24:43;-3.00;90.60
8226;DHT22;4154;48.810;9.012;2024-01-10T06:27:09;-3.10;90.70
8226;DHT22;4154;48.810;9.012;2024-01-10T06:29:36;-3.20;91.00
8226;DHT22;4154;48.810;9.012;2024-01-10T06:32:05;-3.20;91.00
8226;DHT22;4154;48.810;9.012;2024-01-10T06:34:32;-3.30;91.00
8226;DHT22;4154;48.810;9.012;2024-01-10T06:37:00;-3.30;97.30
8226;DHT22;4154;48.810;9.012;2024-01-10T06:39:25;-3.30;91.20
8226;DHT22;4154;48.810;9.012;2024-01-10T06:41:52;-3.30;91.30
8226;DHT22;4154;48.810;9.012;2024-01-10T06:44:18;-3.40;91.10
8226;DHT22;4154;48.810;9.012;2024-01-10T06:49:11;-3.50;90.70
8226;DHT22;4154;48.810;9.012;2024-01-10T06:51:37;-3.50;90.90
8226;DHT22;4154;48.810;9.012;2024-01-10T06:56:31;-3.60;90.80
8226;DHT22;4154;48.810;9.012;2024-01-10T06:58:57;-3.50;91.00
8226;DHT22;4154;48.810;9.012;2024-01-10T07:01:24;-3.50;90.90
8226;DHT22;4154;48.810;9.012;2024-01-10T07:03:51;-3.50;90.80
8226;DHT22;4154;48.810;9.012;2024-01-10T07:06:17;-3.50;90.70
8226;DHT22;4154;48.810;9.012;2024-01-10T07:08:44;-3.50;90.70
8226;DHT22;4154;48.810;9.012;2024-01-10T07:11:10;-3.50;90.70
8226;DHT22;4154;48.810;9.012;2024-01-10T07:13:40;-3.50;90.60
8226;DHT22;4154;48.810;9.012;2024-01-10T07:16:06;-3.50;90.60
8226;DHT22;4154;48.810;9.012;2024-01-10T07:18:33;-3.50;90.60
8226;DHT22;4154;48.810;9.012;2024-01-10T07:20:58;-3.20;97.50
8226;DHT22;4154;48.810;9.012;2024-01-10T07:23:24;-3.40;91.00
8226;DHT22;4154;48.810;9.012;2024-01-10T07:25:50;-3.40;91.20
8226;DHT22;4154;48.810;9.012;2024-01-10T07:28:17;-3.40;91.30
8226;DHT22;4154;48.810;9.012;2024-01-10T07:33:10;-3.40;91.40
8226;DHT22;4154;48.810;9.012;2024-01-10T07:35:36;-3.40;91.60
8226;DHT22;4154;48.810;9.012;2024-01-10T07:38:03;-3.40;91.50
8226;DHT22;4154;48.810;9.012;2024-01-10T07:40:35;-3.40;91.50
8226;DHT22;4154;48.810;9.012;2024-01-10T07:43:01;-3.40;91.70
8226;DHT22;4154;48.810;9.012;2024-01-10T07:45:27;-3.40;91.70
8226;DHT22;4154;48.810;9.012;2024-01-10T07:47:54;-3.40;91.90
8226;DHT22;4154;48.810;9.012;2024-01-10T07:50:20;-3.40;91.60
8226;DHT22;4154;48.810;9.012;2024-01-10T07:52:46;-3.30;91.60
8226;DHT22;4154;48.810;9.012;2024-01-10T07:55:12;-3.20;91.50
8226;DHT22;4154;48.810;9.012;2024-01-10T07:57:38;-3.20;91.50
8226;DHT22;4154;48.810;9.012;2024-01-10T08:00:05;-3.30;91.60
8226;DHT22;4154;48.810;9.012;2024-01-10T08:02:35;-3.30;91.70
8226;DHT22;4154;48.810;9.012;2024-01-10T08:05:04;-3.30;91.80
8226;DHT22;4154;48.810;9.012;2024-01-10T08:07:38;-3.20;91.90
8226;DHT22;4154;48.810;9.012;2024-01-10T08:10:08;-3.20;91.90
8226;DHT22;4154;48.810;9.012;2024-01-10T08:12:36;-3.10;91.90
8226;DHT22;4154;48.810;9.012;2024-01-10T08:15:03;-3.10;91.90
8226;DHT22;4154;48.810;9.012;2024-01-10T08:17:29;-3.10;91.80
8226;DHT22;4154;48.810;9.012;2024-01-10T08:19:55;-2.90;97.70
8226;DHT22;4154;48.810;9.012;2024-01-10T08:22:20;-3.00;91.60
8226;DHT22;4154;48.810;9.012;2024-01-10T08:24:47;-2.70;98.00
8226;DHT22;4154;48.810;9.012;2024-01-10T08:27:13;-2.90;91.70
8226;DHT22;4154;48.810;9.012;2024-01-10T08:29:39;-2.90;91.60
8226;DHT22;4154;48.810;9.012;2024-01-10T08:32:05;-2.90;91.50
8226;DHT22;4154;48.810;9.012;2024-01-10T08:34:31;-2.80;91.60
8226;DHT22;4154;48.810;9.012;2024-01-10T08:36:57;-2.70;97.60
8226;DHT22;4154;48.810;9.012;2024-01-10T08:39:23;-2.80;91.40
8226;DHT22;4154;48.810;9.012;2024-01-10T08:41:51;-2.70;91.50
8226;DHT22;4154;48.810;9.012;2024-01-10T08:44:18;-2.70;91.70
8226;DHT22;4154;48.810;9.012;2024-01-10T08:46:43;-2.60;91.50
8226;DHT22;4154;48.810;9.012;2024-01-10T08:49:09;-2.60;91.30
8226;DHT22;4154;48.810;9.012;2024-01-10T08:51:35;-2.60;91.10
8226;DHT22;4154;48.810;9.012;2024-01-10T08:56:26;-2.60;91.40
8226;DHT22;4154;48.810;9.012;2024-01-10T08:58:52;-2.70;91.70
8226;DHT22;4154;48.810;9.012;2024-01-10T09:01:18;-2.70;91.80
8226;DHT22;4154;48.810;9.012;2024-01-10T09:03:44;-2.80;91.80
8226;DHT22;4154;48.810;9.012;2024-01-10T09:06:11;-2.70;91.80
8226;DHT22;4154;48.810;9.012;2024-01-10T09:08:36;-2.60;91.70
8226;DHT22;4154;48.810;9.012;2024-01-10T09:11:02;-2.60;91.60
8226;DHT22;4154;48.810;9.012;2024-01-10T09:13:28;-2.60;91.60
8226;DHT22;4154;48.810;9.012;2024-01-10T09:15:54;-2.60;91.50
8226;DHT22;4154;48.810;9.012;2024-01-10T09:18:20;-2.60;91.50
8226;DHT22;4154;48.810;9.012;2024-01-10T09:20:46;-2.60;91.60
8226;DHT22;4154;48.810;9.012;2024-01-10T09:23:13;-2.60;91.60
8226;DHT22;4154;48.810;9.012;2024-01-10T09:25:39;-2.60;91.70
8226;DHT22;4154;48.810;9.012;2024-01-10T09:28:05;-2.50;91.70
8226;DHT22;4154;48.810;9.012;2024-01-10T09:30:31;-2.50;91.50
8226;DHT22;4154;48.810;9.012;2024-01-10T09:32:56;-2.50;91.60
8226;DHT22;4154;48.810;9.012;2024-01-10T09:35:22;-2.40;91.50
8226;DHT22;4154;48.810;9.012;2024-01-10T09:37:48;-2.40;91.40
8226;DHT22;4154;48.810;9.012;2024-01-10T09:40:15;-2.40;91.40
8226;DHT22;4154;48.810;9.012;2024-01-10T09:42:43;-2.30;91.50
8226;DHT22;4154;48.810;9.012;2024-01-10T09:45:10;-2.30;91.50
8226;DHT22;4154;48.810;9.012;2024-01-10T09:47:39;-2.50;97.40
8226;DHT22;4154;48.810;9.012;2024-01-10T09:50:08;-2.20;91.10
8226;DHT22;4154;48.810;9.012;2024-01-10T09:52:51;-2.10;91.10
8226;DHT22;4154;48.810;9.012;2024-01-10T09:55:22;-2.10;91.20
8226;DHT22;4154;48.810;9.012;2024-01-10T09:57:51;-2.10;91.20
8226;DHT22;4154;48.810;9.012;2024-01-10T10:00:17;-2.00;91.20
8226;DHT22;4154;48.810;9.012;2024-01-10T10:02:46;-2.00;91.20
8226;DHT22;4154;48.810;9.012;2024-01-10T10:05:16;-2.00;91.20
8226;DHT22;4154;48.810;9.012;2024-01-10T10:07:50;-1.90;97.60
8226;DHT22;4154;48.810;9.012;2024-01-10T10:10:17;-1.90;91.00
8226;DHT22;4154;48.810;9.012;2024-01-10T10:12:47;-1.90;91.20
8226;DHT22;4154;48.810;9.012;2024-01-10T10:15:18;-1.90;91.20
8226;DHT22;4154;48.810;9.012;2024-01-10T10:17:48;-1.80;91.20
8226;DHT22;4154;48.810;9.012;2024-01-10T10:20:26;-1.70;91.10
8226;DHT22;4154;48.810;9.012;2024-01-10T10:23:06;-1.70;91.10
8226;DHT22;4154;48.810;9.012;2024-01-10T10:25:36;-1.70;91.00
8226;DHT22;4154;48.810;9.012;2024-01-10T10:28:08;-1.60;97.50
8226;DHT22;4154;48.810;9.012;2024-01-10T10:30:34;-1.60;97.30
8226;DHT22;4154;48.810;9.012;2024-01-10T10:33:01;-1.60;91.00
8226;DHT22;4154;48.810;9.012;2024-01-10T10:40:22;-1.50;90.70
8226;DHT22;4154;48.810;9.012;2024-01-10T10:42:49;-1.40;90.70
8226;DHT22;4154;48.810;9.012;2024-01-10T10:45:23;-1.40;90.60
8226;DHT22;4154;48.810;9.012;2024-01-10T10:47:58;-1.30;90.60
8226;DHT22;4154;48.810;9.012;2024-01-10T10:50:28;-1.30;90.60
8226;DHT22;4154;48.810;9.012;2024-01-10T10:52:59;-1.30;90.70
8226;DHT22;4154;48.810;9.012;2024-01-10T10:55:28;-1.20;90.70
8226;DHT22;4154;48.810;9.012;2024-01-10T10:57:56;-1.20;90.80
8226;DHT22;4154;48.810;9.012;2024-01-10T11:00:22;-1.20;90.80
8226;DHT22;4154;48.810;9.012;2024-01-10T11:02:56;-1.10;90.70
8226;DHT22;4154;48.810;9.012;2024-01-10T11:05:23;-1.10;96.90
8226;DHT22;4154;48.810;9.012;2024-01-10T11:10:19;-1.00;90.70
8226;DHT22;4154;48.810;9.012;2024-01-10T11:13:25;-0.90;90.70
8226;DHT22;4154;48.810;9.012;2024-01-10T11:16:25;-0.90;90.60
8226;DHT22;4154;48.810;9.012;2024-01-10T11:19:14;-0.90;90.50
8226;DHT22;4154;48.810;9.012;2024-01-10T11:24:49;-0.80;90.50
8226;DHT22;4154;48.810;9.012;2024-01-10T11:27:15;-0.70;90.40
8226;DHT22;4154;48.810;9.012;2024-01-10T11:29:42;-0.70;90.30
8226;DHT22;4154;48.810;9.012;2024-01-10T11:32:18;-0.70;90.30
8226;DHT22;4154;48.810;9.012;2024-01-10T11:37:19;-0.60;90.50
8226;DHT22;4154;48.810;9.012;2024-01-10T11:39:45;-0.60;90.50
8226;DHT22;4154;48.810;9.012;2024-01-10T11:42:11;-0.50;90.50
8226;DHT22;4154;48.810;9.012;2024-01-10T11:44:50;-0.50;90.50
8226;DHT22;4154;48.810;9.012;2024-01-10T11:47:19;-0.50;90.50
8226;DHT22;4154;48.810;9.012;2024-01-10T11:49:58;-0.40;90.60
8226;DHT22;4154;48.810;9.012;2024-01-10T11:52:34;-0.40;96.10
8226;DHT22;4154;48.810;9.012;2024-01-10T11:55:02;-0.40;90.40
8226;DHT22;4154;48.810;9.012;2024-01-10T11:57:30;-0.30;90.40
8226;DHT22;4154;48.810;9.012;2024-01-10T11:59:59;-0.10;96.70
8226;DHT22;4154;48.810;9.012;2024-01-10T12:02:26;-0.30;90.40
8226;DHT22;4154;48.810;9.012;2024-01-10T12:04:53;-0.20;90.50
8226;DHT22;4154;48.810;9.012;2024-01-10T12:07:20;-0.20;90.50
8226;DHT22;4154;48.810;9.012;2024-01-10T12:09:49;-0.20;90.60
8226;DHT22;4154;48.810;9.012;2024-01-10T12:12:15;-0.20;90.60
8226;DHT22;4154;48.810;9.012;2024-01-10T12:14:42;-0.20;90.50
8226;DHT22;4154;48.810;9.012;2024-01-10T12:17:14;-0.10;90.40
8226;DHT22;4154;48.810;9.012;2024-01-10T12:19:40;-0.10;96.20
8226;DHT22;4154;48.810;9.012;2024-01-10T12:22:10;-0.10;90.50
8226;DHT22;4154;48.810;9.012;2024-01-10T12:24:43;-0.10;90.70
8226;DHT22;4154;48.810;9.012;2024-01-10T12:27:16;0.00;90.60
8226;DHT22;4154;48.810;9.012;2024-01-10T12:29:43;0.00;90.60
8226;DHT22;4154;48.810;9.012;2024-01-10T12:34:38;0.10;90.30
8226;DHT22;4154;48.810;9.012;2024-01-10T12:37:05;0.20;96.50
8226;DHT22;4154;48.810;9.012;2024-01-10T12:39:31;0.10;90.50
8226;DHT22;4154;48.810;9.012;2024-01-10T12:41:57;0.10;90.50
8226;DHT22;4154;48.810;9.012;2024-01-10T12:44:29;0.20;90.50
8226;DHT22;4154;48.810;9.012;2024-01-10T12:46:55;0.20;96.30
8226;DHT22;4154;48.810;9.012;2024-01-10T12:49:22;0.20;90.60
8226;DHT22;4154;48.810;9.012;2024-01-10T12:51:48;0.20;90.60
8226;DHT22;4154;48.810;9.012;2024-01-10T12:54:15;0.30;90.50
8226;DHT22;4154;48.810;9.012;2024-01-10T12:56:42;0.40;96.20
8226;DHT22;4154;48.810;9.012;2024-01-10T12:59:08;0.10;96.40
8226;DHT22;4154;48.810;9.012;2024-01-10T13:01:35;0.40;90.60
8226;DHT22;4154;48.810;9.012;2024-01-10T13:04:00;0.40;90.70
8226;DHT22;4154;48.810;9.012;2024-01-10T13:06:26;0.40;90.80
8226;DHT22;4154;48.810;9.012;2024-01-10T13:08:52;0.40;90.80
8226;DHT22;4154;48.810;9.012;2024-01-10T13:11:19;0.50;90.60
8226;DHT22;4154;48.810;9.012;2024-01-10T13:13:45;0.50;90.60
8226;DHT22;4154;48.810;9.012;2024-01-10T13:16:11;0.50;90.60
8226;DHT22;4154;48.810;9.012;2024-01-10T13:18:38;0.50;90.60
8226;DHT22;4154;48.810;9.012;2024-01-10T13:21:04;0.50;96.60
8226;DHT22;4154;48.810;9.012;2024-01-10T13:23:30;0.50;91.00
8226;DHT22;4154;48.810;9.012;2024-01-10T13:25:55;0.60;96.70
8226;DHT22;4154;48.810;9.012;2024-01-10T13:28:21;0.50;90.90
8226;DHT22;4154;48.810;9.012;2024-01-10T13:30:47;0.40;96.70
8226;DHT22;4154;48.810;9.012;2024-01-10T13:33:13;0.50;91.00
8226;DHT22;4154;48.810;9.012;2024-01-10T13:35:39;0.60;96.90
8226;DHT22;4154;48.810;9.012;2024-01-10T13:38:05;0.60;91.10
8226;DHT22;4154;48.810;9.012;2024-01-10T13:40:32;0.60;91.10
8226;DHT22;4154;48.810;9.012;2024-01-10T13:45:28;0.60;90.80
8226;DHT22;4154;48.810;9.012;2024-01-10T13:47:54;0.70;91.00
8226;DHT22;4154;48.810;9.012;2024-01-10T13:50:20;0.70;91.10
8226;DHT22;4154;48.810;9.012;2024-01-10T13:52:46;0.70;91.20
8226;DHT22;4154;48.810;9.012;2024-01-10T13:55:11;0.60;91.30
8226;DHT22;4154;48.810;9.012;2024-01-10T13:57:38;0.70;91.40
8226;DHT22;4154;48.810;9.012;2024-01-10T14:00:06;0.70;91.20
8226;DHT22;4154;48.810;9.012;2024-01-10T14:02:34;0.70;91.20
8226;DHT22;4154;48.810;9.012;2024-01-10T14:05:01;0.70;91.10
8226;DHT22;4154;48.810;9.012;2024-01-10T14:07:30;0.70;91.20
8226;DHT22;4154;48.810;9.012;2024-01-10T14:09:57;0.60;91.10
8226;DHT22;4154;48.810;9.012;2024-01-10T14:12:23;0.80;91.00
8226;DHT22;4154;48.810;9.012;2024-01-10T14:14:49;0.70;91.10
8226;DHT22;4154;48.810;9.012;2024-01-10T14:17:14;0.70;91.30
8226;DHT22;4154;48.810;9.012;2024-01-10T14:19:40;0.70;91.30
8226;DHT22;4154;48.810;9.012;2024-01-10T14:22:06;0.70;91.30
8226;DHT22;4154;48.810;9.012;2024-01-10T14:24:32;0.70;91.40
8226;DHT22;4154;48.810;9.012;2024-01-10T14:26:58;0.60;97.00
8226;DHT22;4154;48.810;9.012;2024-01-10T14:29:23;0.60;91.50
8226;DHT22;4154;48.810;9.012;2024-01-10T14:31:49;0.60;91.40
8226;DHT22;4154;48.810;9.012;2024-01-10T14:34:15;0.70;91.60
8226;DHT22;4154;48.810;9.012;2024-01-10T14:36:41;0.60;91.70
8226;DHT22;4154;48.810;9.012;2024-01-10T14:39:07;0.60;91.70
8226;DHT22;4154;48.810;9.012;2024-01-10T14:41:33;0.80;97.30
8226;DHT22;4154;48.810;9.012;2024-01-10T14:44:00;0.60;91.70
8226;DHT22;4154;48.810;9.012;2024-01-10T14:46:26;0.70;97.50
8226;DHT22;4154;48.810;9.012;2024-01-10T14:48:53;0.60;91.70
8226;DHT22;4154;48.810;9.012;2024-01-10T14:51:19;0.60;91.70
8226;DHT22;4154;48.810;9.012;2024-01-10T14:53:45;0.60;91.80
8226;DHT22;4154;48.810;9.012;2024-01-10T14:56:10;0.60;91.80
8226;DHT22;4154;48.810;9.012;2024-01-10T14:58:36;0.60;91.80
8226;DHT22;4154;48.810;9.012;2024-01-10T15:01:02;0.60;91.90
8226;DHT22;4154;48.810;9.012;2024-01-10T15:03:27;0.50;91.90
8226;DHT22;4154;48.810;9.012;2024-01-10T15:05:53;0.50;92.00
8226;DHT22;4154;48.810;9.012;2024-01-10T15:08:19;0.50;91.90
8226;DHT22;4154;48.810;9.012;2024-01-10T15:10:45;0.50;91.90
8226;DHT22;4154;48.810;9.012;2024-01-10T15:13:11;0.50;91.80
8226;DHT22;4154;48.810;9.012;2024-01-10T15:15:38;0.70;91.80
8226;DHT22;4154;48.810;9.012;2024-01-10T15:18:05;0.50;91.70
8226;DHT22;4154;48.810;9.012;2024-01-10T15:20:31;0.50;91.70
8226;DHT22;4154;48.810;9.012;2024-01-10T15:22:57;0.40;91.70
8226;DHT22;4154;48.810;9.012;2024-01-10T15:25:24;0.40;91.80
8226;DHT22;4154;48.810;9.012;2024-01-10T15:27:51;0.40;91.80
8226;DHT22;4154;48.810;9.012;2024-01-10T15:30:17;0.40;91.90
8226;DHT22;4154;48.810;9.012;2024-01-10T15:32:48;0.40;91.70
8226;DHT22;4154;48.810;9.012;2024-01-10T15:35:15;0.40;91.90
8226;DHT22;4154;48.810;9.012;2024-01-10T15:37:41;0.40;91.80
8226;DHT22;4154;48.810;9.012;2024-01-10T15:40:10;0.20;97.60
8226;DHT22;4154;48.810;9.012;2024-01-10T15:45:04;0.20;91.80
8226;DHT22;4154;48.810;9.012;2024-01-10T15:47:31;0.20;92.00
8226;DHT22;4154;48.810;9.012;2024-01-10T15:49:57;0.20;92.00
8226;DHT22;4154;48.810;9.012;2024-01-10T15:52:23;0.10;91.90
8226;DHT22;4154;48.810;9.012;2024-01-10T15:54:52;0.10;92.00
8226;DHT22;4154;48.810;9.012;2024-01-10T15:57:24;0.10;91.80
8226;DHT22;4154;48.810;9.012;2024-01-10T15:59:50;0.10;92.00
8226;DHT22;4154;48.810;9.012;2024-01-10T16:02:16;0.10;92.00
8226;DHT22;4154;48.810;9.012;2024-01-10T16:04:41;0.00;92.00
8226;DHT22;4154;48.810;9.012;2024-01-10T16:07:07;0.00;92.00
8226;DHT22;4154;48.810;9.012;2024-01-10T16:12:03;-0.10;91.80
8226;DHT22;4154;48.810;9.012;2024-01-10T16:14:29;-0.10;92.00
8226;DHT22;4154;48.810;9.012;2024-01-10T16:16:55;-0.10;98.20
8226;DHT22;4154;48.810;9.012;2024-01-10T16:19:22;-0.20;91.90
8226;DHT22;4154;48.810;9.012;2024-01-10T16:21:48;-0.20;92.00
8226;DHT22;4154;48.810;9.012;2024-01-10T16:24:13;-0.20;92.00
8226;DHT22;4154;48.810;9.012;2024-01-10T16:26:42;-0.20;92.00
8226;DHT22;4154;48.810;9.012;2024-01-10T16:29:08;-0.20;92.00
8226;DHT22;4154;48.810;9.012;2024-01-10T16:31:35;-0.30;91.90
8226;DHT22;4154;48.810;9.012;2024-01-10T16:34:02;-0.20;92.00
8226;DHT22;4154;48.810;9.012;2024-01-10T16:36:28;-0.30;92.00
8226;DHT22;4154;48.810;9.012;2024-01-10T16:38:53;-0.30;92.00
8226;DHT22;4154;48.810;9.012;2024-01-10T16:41:20;-0.40;92.10
8226;DHT22;4154;48.810;9.012;2024-01-10T16:43:46;-0.40;92.10
8226;DHT22;4154;48.810;9.012;2024-01-10T16:53:32;-0.40;91.90
8226;DHT22;4154;48.810;9.012;2024-01-10T16:55:58;-0.40;92.10
8226;DHT22;4154;48.810;9.012;2024-01-10T16:58:24;-0.50;92.20
8226;DHT22;4154;48.810;9.012;2024-01-10T17:03:15;-0.50;92.10
8226;DHT22;4154;48.810;9.012;2024-01-10T17:05:41;-0.60;92.20
8226;DHT22;4154;48.810;9.012;2024-01-10T17:08:08;-0.60;92.20